Weather at Luke Air Force Auxiliary Field 11 [CLOSED]

Public forecast

Using degrees Fahrenheit for public forecast. Weather courtesy of forecast.io.

Closest aviation weather report (METAR) to Luke Air Force Auxiliary Field 11

Closest report is Gila Bend Af Aux Airport, 10.7 nm (19.8 km) ENE. Retrieved 2021/06/20 02:58 UTC (29 minutes ago):

KGXF 200258Z AUTO 24010KT 10SM CLR 42/06 A2954 RMK AO2 SLP986 T04240058 53003

Closest aviation forecast (TAF) to Luke Air Force Auxiliary Field 11

Forecast is more than 12 hours old.

Closest forecast is Luke Air Force Base, 50.7 nm (93.9 km) NNE. Retrieved 2021/06/18 20:25 UTC (1 day ago):

TAF KLUF 182000Z 1820/2002 VRB06KT 9999 FEW200 QNH2961INS BECMG 1820/1821 22012G18KT 9999 FEW180 QNH2956INS BECMG 1901/1902 VRB06KT 9999 FEW200 QNH2963INS TEMPO 1922/2002 24010G15KT TX47/1823Z TN30/1913Z LAST NO AMDS AFT 1902 NEXT 2112